Pagina principale
METAR-TAF:

METAR-TAF

Aeroporti :

Beauvechain, Belgio

latitudine: 50-45N, longitudine: 004-46E, altezza: 105 m

Osservazione

Il bollettino è stato emesso 26 minuti fa, alle 15:25 UTC
Vento 2 kt da direzioni variabili
Temperature 30°C
Umidità 49%
Pressione 1018 hPa
Visibilità 10 km o più

METAR: EBBE 241525Z AUTO VRB02KT 9999 NCD 30/18 Q1018 BLU

Ora: 17:51 (15:51 UTC)

Previsione

Il bollettino è stato emesso 4 ore e 10 minuti fa, alle 11:41 UTC
Previsione valida dal 24 alle 13 UTC al 24 alle 22 UTC
Vento 5 kt da sud
Visibilità 10 km o più
Poco nuvoloso ad un'altezza di 4000 ft
Nuvoloso ad un'altezza di 30000 ft
Temporaneamente
dal 24 alle 13 UTC al 24 alle 17 UTC
Vento 3 kt da direzioni variabili
Evoluzione graduale
dal 24 alle 16 UTC al 24 alle 18 UTC
Vento 7 kt da nord
Nuvoloso ad un'altezza di 18000 ft

TAF: EBBE 241141Z 2413/2422 19005KT 9999 FEW040 BKN300 TEMPO 2413/2417 VRB03KT BECMG 2416/2418 01007KT BKN180

Osservazioni e previsioni meteorologiche di più di 4000 aeroporti (messaggi METAR e TAF).

Le stazioni disponibili sono rappresentate dai dischi gialli e rossi sulla carta.

Puntare il mouse per vedere il nome della stazione.

Clicca sopra per visualizzare le osservazioni e previsioni meteorologiche.

Per cambiare la mappa : fare clic sui pulsanti verdi con una croce nera per ingrandire, il pulsante verde con un trattino per diminuire, o sulla freccia verde per le mappe adiacenti.


METAR-TAF: